sensor_id;sensor_type;location;lat;lon;timestamp;pressure;altitude;pressure_sealevel;temperature
35582;BMP180;21687;48.900;9.188;2022-12-11T00:01:29;97748.00;;;-2.90
35582;BMP180;21687;48.900;9.188;2022-12-11T00:03:56;97749.00;;;-2.90
35582;BMP180;21687;48.900;9.188;2022-12-11T00:06:22;97759.00;;;-2.90
35582;BMP180;21687;48.900;9.188;2022-12-11T00:08:53;97756.00;;;-2.90
35582;BMP180;21687;48.900;9.188;2022-12-11T00:11:21;97748.00;;;-2.90
35582;BMP180;21687;48.900;9.188;2022-12-11T00:13:47;97746.00;;;-3.00
35582;BMP180;21687;48.900;9.188;2022-12-11T00:16:14;97749.00;;;-3.00
35582;BMP180;21687;48.900;9.188;2022-12-11T00:18:40;97753.00;;;-3.20
35582;BMP180;21687;48.900;9.188;2022-12-11T00:21:10;97749.00;;;-3.20
35582;BMP180;21687;48.900;9.188;2022-12-11T00:23:37;97749.00;;;-3.10
35582;BMP180;21687;48.900;9.188;2022-12-11T00:26:09;97757.00;;;-3.20
35582;BMP180;21687;48.900;9.188;2022-12-11T00:28:35;97751.00;;;-3.20
35582;BMP180;21687;48.900;9.188;2022-12-11T00:31:06;97742.00;;;-3.30
35582;BMP180;21687;48.900;9.188;2022-12-11T00:33:33;97751.00;;;-3.30
35582;BMP180;21687;48.900;9.188;2022-12-11T00:36:00;97757.00;;;-3.30
35582;BMP180;21687;48.900;9.188;2022-12-11T00:38:26;97753.00;;;-3.20
35582;BMP180;21687;48.900;9.188;2022-12-11T00:40:56;97754.00;;;-3.10
35582;BMP180;21687;48.900;9.188;2022-12-11T00:43:22;97754.00;;;-3.00
35582;BMP180;21687;48.900;9.188;2022-12-11T00:45:49;97755.00;;;-2.80
35582;BMP180;21687;48.900;9.188;2022-12-11T00:48:15;97760.00;;;-2.80
35582;BMP180;21687;48.900;9.188;2022-12-11T00:50:41;97753.00;;;-2.80
35582;BMP180;21687;48.900;9.188;2022-12-11T00:53:08;97749.00;;;-2.60
35582;BMP180;21687;48.900;9.188;2022-12-11T00:55:39;97754.00;;;-2.60
35582;BMP180;21687;48.900;9.188;2022-12-11T00:58:06;97742.00;;;-2.50
35582;BMP180;21687;48.900;9.188;2022-12-11T01:00:32;97751.00;;;-2.40
35582;BMP180;21687;48.900;9.188;2022-12-11T01:02:59;97754.00;;;-2.30
35582;BMP180;21687;48.900;9.188;2022-12-11T01:05:25;97745.00;;;-2.30
35582;BMP180;21687;48.900;9.188;2022-12-11T01:07:52;97754.00;;;-2.20
35582;BMP180;21687;48.900;9.188;2022-12-11T01:10:18;97759.00;;;-2.20
35582;BMP180;21687;48.900;9.188;2022-12-11T01:12:58;97766.00;;;-2.10
35582;BMP180;21687;48.900;9.188;2022-12-11T01:15:27;97766.00;;;-2.10
35582;BMP180;21687;48.900;9.188;2022-12-11T01:17:54;97773.00;;;-2.10
35582;BMP180;21687;48.900;9.188;2022-12-11T01:20:22;97769.00;;;-2.10
35582;BMP180;21687;48.900;9.188;2022-12-11T01:22:52;97779.00;;;-2.10
35582;BMP180;21687;48.900;9.188;2022-12-11T01:25:18;97770.00;;;-2.10
35582;BMP180;21687;48.900;9.188;2022-12-11T01:27:45;97780.00;;;-2.20
35582;BMP180;21687;48.900;9.188;2022-12-11T01:30:13;97781.00;;;-2.20
35582;BMP180;21687;48.900;9.188;2022-12-11T01:32:39;97787.00;;;-2.20
35582;BMP180;21687;48.900;9.188;2022-12-11T01:35:07;97780.00;;;-2.20
35582;BMP180;21687;48.900;9.188;2022-12-11T01:37:33;97782.00;;;-2.20
35582;BMP180;21687;48.900;9.188;2022-12-11T01:40:00;97781.00;;;-2.20
35582;BMP180;21687;48.900;9.188;2022-12-11T01:42:27;97772.00;;;-2.20
35582;BMP180;21687;48.900;9.188;2022-12-11T01:45:30;97783.00;;;-2.40
35582;BMP180;21687;48.900;9.188;2022-12-11T01:48:01;97758.00;;;-2.20
35582;BMP180;21687;48.900;9.188;2022-12-11T01:50:32;97780.00;;;-2.20
35582;BMP180;21687;48.900;9.188;2022-12-11T01:52:59;97784.00;;;-2.30
35582;BMP180;21687;48.900;9.188;2022-12-11T01:55:26;97784.00;;;-2.30
35582;BMP180;21687;48.900;9.188;2022-12-11T01:57:52;97789.00;;;-2.20
35582;BMP180;21687;48.900;9.188;2022-12-11T02:00:19;97783.00;;;-2.10
35582;BMP180;21687;48.900;9.188;2022-12-11T02:02:46;97791.00;;;-2.10
35582;BMP180;21687;48.900;9.188;2022-12-11T02:05:12;97798.00;;;-2.10
35582;BMP180;21687;48.900;9.188;2022-12-11T02:07:42;97789.00;;;-2.00
35582;BMP180;21687;48.900;9.188;2022-12-11T02:10:11;97789.00;;;-2.00
35582;BMP180;21687;48.900;9.188;2022-12-11T02:18:05;97807.00;;;-1.90
35582;BMP180;21687;48.900;9.188;2022-12-11T02:20:42;97804.00;;;-1.90
35582;BMP180;21687;48.900;9.188;2022-12-11T02:25:56;97796.00;;;-1.90
35582;BMP180;21687;48.900;9.188;2022-12-11T02:29:12;97794.00;;;-1.80
35582;BMP180;21687;48.900;9.188;2022-12-11T02:31:44;97793.00;;;-1.80
35582;BMP180;21687;48.900;9.188;2022-12-11T02:34:25;97785.00;;;-1.70
35582;BMP180;21687;48.900;9.188;2022-12-11T02:36:59;97789.00;;;-1.70
35582;BMP180;21687;48.900;9.188;2022-12-11T02:39:28;97780.00;;;-1.60
35582;BMP180;21687;48.900;9.188;2022-12-11T02:41:54;97786.00;;;-1.60
35582;BMP180;21687;48.900;9.188;2022-12-11T02:44:27;97784.00;;;-1.60
35582;BMP180;21687;48.900;9.188;2022-12-11T02:46:54;97780.00;;;-1.60
35582;BMP180;21687;48.900;9.188;2022-12-11T02:49:22;97791.00;;;-1.60
35582;BMP180;21687;48.900;9.188;2022-12-11T02:51:50;97801.00;;;-1.60
35582;BMP180;21687;48.900;9.188;2022-12-11T02:54:24;97797.00;;;-1.60
35582;BMP180;21687;48.900;9.188;2022-12-11T02:59:45;97790.00;;;-1.50
35582;BMP180;21687;48.900;9.188;2022-12-11T03:02:15;97794.00;;;-1.60
35582;BMP180;21687;48.900;9.188;2022-12-11T03:04:42;97787.00;;;-1.50
35582;BMP180;21687;48.900;9.188;2022-12-11T03:07:22;97794.00;;;-1.40
35582;BMP180;21687;48.900;9.188;2022-12-11T03:09:50;97794.00;;;-1.60
35582;BMP180;21687;48.900;9.188;2022-12-11T03:12:28;97793.00;;;-1.60
35582;BMP180;21687;48.900;9.188;2022-12-11T03:14:59;97788.00;;;-1.50
35582;BMP180;21687;48.900;9.188;2022-12-11T03:20:35;97783.00;;;-1.50
35582;BMP180;21687;48.900;9.188;2022-12-11T03:23:07;97790.00;;;-1.60
35582;BMP180;21687;48.900;9.188;2022-12-11T03:25:55;97785.00;;;-1.60
35582;BMP180;21687;48.900;9.188;2022-12-11T03:28:45;97791.00;;;-1.50
35582;BMP180;21687;48.900;9.188;2022-12-11T03:31:22;97792.00;;;-1.60
35582;BMP180;21687;48.900;9.188;2022-12-11T03:33:53;97795.00;;;-1.40
35582;BMP180;21687;48.900;9.188;2022-12-11T03:36:24;97796.00;;;-1.60
35582;BMP180;21687;48.900;9.188;2022-12-11T03:39:02;97798.00;;;-1.60
35582;BMP180;21687;48.900;9.188;2022-12-11T03:41:32;97786.00;;;-1.60
35582;BMP180;21687;48.900;9.188;2022-12-11T03:43:59;97777.00;;;-1.60
35582;BMP180;21687;48.900;9.188;2022-12-11T03:46:35;97780.00;;;-1.70
35582;BMP180;21687;48.900;9.188;2022-12-11T03:49:07;97779.00;;;-1.70
35582;BMP180;21687;48.900;9.188;2022-12-11T03:51:35;97779.00;;;-1.70
35582;BMP180;21687;48.900;9.188;2022-12-11T03:54:02;97786.00;;;-1.70
35582;BMP180;21687;48.900;9.188;2022-12-11T03:56:31;97767.00;;;-1.70
35582;BMP180;21687;48.900;9.188;2022-12-11T03:59:00;97773.00;;;-1.70
35582;BMP180;21687;48.900;9.188;2022-12-11T04:01:26;97767.00;;;-1.70
35582;BMP180;21687;48.900;9.188;2022-12-11T04:03:53;97766.00;;;-1.80
35582;BMP180;21687;48.900;9.188;2022-12-11T04:06:19;97756.00;;;-1.70
35582;BMP180;21687;48.900;9.188;2022-12-11T04:08:45;97762.00;;;-1.70
35582;BMP180;21687;48.900;9.188;2022-12-11T04:11:11;97757.00;;;-1.70
35582;BMP180;21687;48.900;9.188;2022-12-11T04:13:56;97756.00;;;-1.80
35582;BMP180;21687;48.900;9.188;2022-12-11T04:16:41;97747.00;;;-1.90
35582;BMP180;21687;48.900;9.188;2022-12-11T04:19:08;97746.00;;;-1.80
35582;BMP180;21687;48.900;9.188;2022-12-11T04:21:53;97737.00;;;-1.90
35582;BMP180;21687;48.900;9.188;2022-12-11T04:24:38;97740.00;;;-1.90
35582;BMP180;21687;48.900;9.188;2022-12-11T04:27:04;97734.00;;;-2.00
35582;BMP180;21687;48.900;9.188;2022-12-11T04:29:30;97739.00;;;-2.00
35582;BMP180;21687;48.900;9.188;2022-12-11T04:31:57;97738.00;;;-1.90
35582;BMP180;21687;48.900;9.188;2022-12-11T04:34:23;97755.00;;;-2.00
35582;BMP180;21687;48.900;9.188;2022-12-11T04:36:49;97766.00;;;-2.00
35582;BMP180;21687;48.900;9.188;2022-12-11T04:39:16;97760.00;;;-2.20
35582;BMP180;21687;48.900;9.188;2022-12-11T04:41:42;97761.00;;;-2.20
35582;BMP180;21687;48.900;9.188;2022-12-11T04:44:09;97758.00;;;-2.10
35582;BMP180;21687;48.900;9.188;2022-12-11T04:46:35;97749.00;;;-2.10
35582;BMP180;21687;48.900;9.188;2022-12-11T04:49:01;97765.00;;;-2.10
35582;BMP180;21687;48.900;9.188;2022-12-11T04:51:28;97756.00;;;-2.00
35582;BMP180;21687;48.900;9.188;2022-12-11T04:53:54;97751.00;;;-2.10
35582;BMP180;21687;48.900;9.188;2022-12-11T04:56:21;97747.00;;;-2.10
35582;BMP180;21687;48.900;9.188;2022-12-11T04:58:47;97751.00;;;-2.20
35582;BMP180;21687;48.900;9.188;2022-12-11T05:01:17;97745.00;;;-2.20
35582;BMP180;21687;48.900;9.188;2022-12-11T05:03:45;97748.00;;;-2.30
35582;BMP180;21687;48.900;9.188;2022-12-11T05:06:12;97767.00;;;-2.40
35582;BMP180;21687;48.900;9.188;2022-12-11T05:08:40;97765.00;;;-2.40
35582;BMP180;21687;48.900;9.188;2022-12-11T05:11:09;97751.00;;;-2.60
35582;BMP180;21687;48.900;9.188;2022-12-11T05:13:37;97758.00;;;-2.60
35582;BMP180;21687;48.900;9.188;2022-12-11T05:16:05;97762.00;;;-2.60
35582;BMP180;21687;48.900;9.188;2022-12-11T05:18:32;97767.00;;;-2.80
35582;BMP180;21687;48.900;9.188;2022-12-11T05:21:00;97766.00;;;-2.90
35582;BMP180;21687;48.900;9.188;2022-12-11T05:23:27;97770.00;;;-2.90
35582;BMP180;21687;48.900;9.188;2022-12-11T05:25:59;97751.00;;;-3.00
35582;BMP180;21687;48.900;9.188;2022-12-11T05:28:30;97759.00;;;-3.00
35582;BMP180;21687;48.900;9.188;2022-12-11T05:30:57;97754.00;;;-3.00
35582;BMP180;21687;48.900;9.188;2022-12-11T05:33:24;97749.00;;;-3.10
35582;BMP180;21687;48.900;9.188;2022-12-11T05:35:51;97758.00;;;-3.10
35582;BMP180;21687;48.900;9.188;2022-12-11T05:38:18;97754.00;;;-3.10
35582;BMP180;21687;48.900;9.188;2022-12-11T05:40:45;97756.00;;;-3.20
35582;BMP180;21687;48.900;9.188;2022-12-11T05:43:19;97748.00;;;-3.30
35582;BMP180;21687;48.900;9.188;2022-12-11T05:45:46;97744.00;;;-3.40
35582;BMP180;21687;48.900;9.188;2022-12-11T05:48:12;97754.00;;;-3.50
35582;BMP180;21687;48.900;9.188;2022-12-11T05:50:38;97745.00;;;-3.60
35582;BMP180;21687;48.900;9.188;2022-12-11T05:53:05;97741.00;;;-3.70
35582;BMP180;21687;48.900;9.188;2022-12-11T05:55:34;97743.00;;;-3.60
35582;BMP180;21687;48.900;9.188;2022-12-11T05:58:00;97726.00;;;-3.70
35582;BMP180;21687;48.900;9.188;2022-12-11T06:00:26;97738.00;;;-3.70
35582;BMP180;21687;48.900;9.188;2022-12-11T06:02:53;97730.00;;;-3.70
35582;BMP180;21687;48.900;9.188;2022-12-11T06:05:19;97722.00;;;-3.80
35582;BMP180;21687;48.900;9.188;2022-12-11T06:07:45;97722.00;;;-3.90
35582;BMP180;21687;48.900;9.188;2022-12-11T06:10:11;97724.00;;;-4.00
35582;BMP180;21687;48.900;9.188;2022-12-11T06:12:38;97713.00;;;-4.00
35582;BMP180;21687;48.900;9.188;2022-12-11T06:15:04;97717.00;;;-4.00
35582;BMP180;21687;48.900;9.188;2022-12-11T06:17:32;97720.00;;;-3.90
35582;BMP180;21687;48.900;9.188;2022-12-11T06:19:58;97714.00;;;-3.90
35582;BMP180;21687;48.900;9.188;2022-12-11T06:22:24;97723.00;;;-3.90
35582;BMP180;21687;48.900;9.188;2022-12-11T06:24:51;97715.00;;;-3.90
35582;BMP180;21687;48.900;9.188;2022-12-11T06:27:17;97711.00;;;-3.90
35582;BMP180;21687;48.900;9.188;2022-12-11T06:29:45;97712.00;;;-3.80
35582;BMP180;21687;48.900;9.188;2022-12-11T06:32:11;97708.00;;;-3.80
35582;BMP180;21687;48.900;9.188;2022-12-11T06:34:37;97713.00;;;-3.70
35582;BMP180;21687;48.900;9.188;2022-12-11T06:37:04;97720.00;;;-3.60
35582;BMP180;21687;48.900;9.188;2022-12-11T06:39:31;97722.00;;;-3.50
35582;BMP180;21687;48.900;9.188;2022-12-11T06:41:57;97711.00;;;-3.40
35582;BMP180;21687;48.900;9.188;2022-12-11T06:44:23;97716.00;;;-3.50
35582;BMP180;21687;48.900;9.188;2022-12-11T06:46:50;97718.00;;;-3.50
35582;BMP180;21687;48.900;9.188;2022-12-11T06:49:16;97731.00;;;-3.50
35582;BMP180;21687;48.900;9.188;2022-12-11T06:51:42;97715.00;;;-3.40
35582;BMP180;21687;48.900;9.188;2022-12-11T06:54:08;97727.00;;;-3.30
35582;BMP180;21687;48.900;9.188;2022-12-11T06:56:35;97732.00;;;-3.20
35582;BMP180;21687;48.900;9.188;2022-12-11T06:59:01;97722.00;;;-3.10
35582;BMP180;21687;48.900;9.188;2022-12-11T07:01:28;97724.00;;;-3.00
35582;BMP180;21687;48.900;9.188;2022-12-11T07:03:56;97728.00;;;-2.80
35582;BMP180;21687;48.900;9.188;2022-12-11T07:06:23;97733.00;;;-2.80
35582;BMP180;21687;48.900;9.188;2022-12-11T07:08:50;97745.00;;;-2.60
35582;BMP180;21687;48.900;9.188;2022-12-11T07:11:17;97747.00;;;-2.60
35582;BMP180;21687;48.900;9.188;2022-12-11T07:13:44;97749.00;;;-2.60
35582;BMP180;21687;48.900;9.188;2022-12-11T07:16:12;97746.00;;;-2.50
35582;BMP180;21687;48.900;9.188;2022-12-11T07:18:41;97752.00;;;-2.50
35582;BMP180;21687;48.900;9.188;2022-12-11T07:21:10;97754.00;;;-2.40
35582;BMP180;21687;48.900;9.188;2022-12-11T07:23:36;97758.00;;;-2.30
35582;BMP180;21687;48.900;9.188;2022-12-11T07:26:12;97747.00;;;-2.30
35582;BMP180;21687;48.900;9.188;2022-12-11T07:28:38;97746.00;;;-2.20
35582;BMP180;21687;48.900;9.188;2022-12-11T07:31:12;97748.00;;;-2.20
35582;BMP180;21687;48.900;9.188;2022-12-11T07:33:39;97738.00;;;-2.20
35582;BMP180;21687;48.900;9.188;2022-12-11T07:36:08;97745.00;;;-2.10
35582;BMP180;21687;48.900;9.188;2022-12-11T07:38:35;97749.00;;;-2.10
35582;BMP180;21687;48.900;9.188;2022-12-11T07:41:03;97754.00;;;-2.00
35582;BMP180;21687;48.900;9.188;2022-12-11T07:43:30;97747.00;;;-2.00
35582;BMP180;21687;48.900;9.188;2022-12-11T07:46:03;97750.00;;;-2.00
35582;BMP180;21687;48.900;9.188;2022-12-11T07:48:29;97761.00;;;-1.90
35582;BMP180;21687;48.900;9.188;2022-12-11T07:51:06;97753.00;;;-1.90
35582;BMP180;21687;48.900;9.188;2022-12-11T07:53:32;97755.00;;;-1.80
35582;BMP180;21687;48.900;9.188;2022-12-11T07:55:59;97751.00;;;-1.80
35582;BMP180;21687;48.900;9.188;2022-12-11T07:58:25;97752.00;;;-1.80
35582;BMP180;21687;48.900;9.188;2022-12-11T08:00:52;97750.00;;;-1.70
35582;BMP180;21687;48.900;9.188;2022-12-11T08:03:18;97767.00;;;-1.70
35582;BMP180;21687;48.900;9.188;2022-12-11T08:05:49;97755.00;;;-1.80
35582;BMP180;21687;48.900;9.188;2022-12-11T08:08:15;97747.00;;;-1.70
35582;BMP180;21687;48.900;9.188;2022-12-11T08:10:42;97746.00;;;-1.80
35582;BMP180;21687;48.900;9.188;2022-12-11T08:13:08;97748.00;;;-1.80
35582;BMP180;21687;48.900;9.188;2022-12-11T08:15:35;97747.00;;;-1.80
35582;BMP180;21687;48.900;9.188;2022-12-11T08:18:02;97740.00;;;-1.90
35582;BMP180;21687;48.900;9.188;2022-12-11T08:20:28;97749.00;;;-1.90
35582;BMP180;21687;48.900;9.188;2022-12-11T08:22:56;97751.00;;;-1.90
35582;BMP180;21687;48.900;9.188;2022-12-11T08:25:23;97736.00;;;-1.90
35582;BMP180;21687;48.900;9.188;2022-12-11T08:27:49;97748.00;;;-1.80
35582;BMP180;21687;48.900;9.188;2022-12-11T08:30:15;97749.00;;;-1.80
35582;BMP180;21687;48.900;9.188;2022-12-11T08:32:42;97751.00;;;-1.70
35582;BMP180;21687;48.900;9.188;2022-12-11T08:35:08;97745.00;;;-1.50
35582;BMP180;21687;48.900;9.188;2022-12-11T08:37:35;97748.00;;;-1.40
35582;BMP180;21687;48.900;9.188;2022-12-11T08:40:05;97745.00;;;-1.30
35582;BMP180;21687;48.900;9.188;2022-12-11T08:42:32;97740.00;;;-1.20
35582;BMP180;21687;48.900;9.188;2022-12-11T08:44:58;97741.00;;;-1.10
35582;BMP180;21687;48.900;9.188;2022-12-11T08:47:24;97740.00;;;-1.00
35582;BMP180;21687;48.900;9.188;2022-12-11T08:49:51;97744.00;;;-0.80
35582;BMP180;21687;48.900;9.188;2022-12-11T08:52:17;97753.00;;;-0.70
35582;BMP180;21687;48.900;9.188;2022-12-11T08:54:44;97745.00;;;-0.80
35582;BMP180;21687;48.900;9.188;2022-12-11T08:57:10;97747.00;;;-0.70
35582;BMP180;21687;48.900;9.188;2022-12-11T08:59:37;97745.00;;;-0.70
35582;BMP180;21687;48.900;9.188;2022-12-11T09:02:04;97744.00;;;-0.70
35582;BMP180;21687;48.900;9.188;2022-12-11T09:04:30;97746.00;;;-0.70
35582;BMP180;21687;48.900;9.188;2022-12-11T09:06:57;97739.00;;;-0.60
35582;BMP180;21687;48.900;9.188;2022-12-11T09:09:24;97738.00;;;-0.50
35582;BMP180;21687;48.900;9.188;2022-12-11T09:11:50;97738.00;;;-0.60
35582;BMP180;21687;48.900;9.188;2022-12-11T09:14:17;97741.00;;;-0.60
35582;BMP180;21687;48.900;9.188;2022-12-11T09:16:43;97747.00;;;-0.50
35582;BMP180;21687;48.900;9.188;2022-12-11T09:19:12;97744.00;;;-0.40
35582;BMP180;21687;48.900;9.188;2022-12-11T09:21:40;97741.00;;;-0.40
35582;BMP180;21687;48.900;9.188;2022-12-11T09:24:07;97742.00;;;-0.40
35582;BMP180;21687;48.900;9.188;2022-12-11T09:26:34;97759.00;;;-0.30
35582;BMP180;21687;48.900;9.188;2022-12-11T09:29:03;97743.00;;;-0.20
35582;BMP180;21687;48.900;9.188;2022-12-11T09:31:32;97742.00;;;-0.30
35582;BMP180;21687;48.900;9.188;2022-12-11T09:34:03;97749.00;;;-0.30
35582;BMP180;21687;48.900;9.188;2022-12-11T09:36:30;97748.00;;;-0.40
35582;BMP180;21687;48.900;9.188;2022-12-11T09:39:03;97720.00;;;-0.30
35582;BMP180;21687;48.900;9.188;2022-12-11T09:41:39;97747.00;;;-0.30
35582;BMP180;21687;48.900;9.188;2022-12-11T09:46:54;97737.00;;;-0.30
35582;BMP180;21687;48.900;9.188;2022-12-11T09:49:36;97734.00;;;-0.30
35582;BMP180;21687;48.900;9.188;2022-12-11T09:54:59;97731.00;;;-0.40
35582;BMP180;21687;48.900;9.188;2022-12-11T10:02:52;97727.00;;;-0.60
35582;BMP180;21687;48.900;9.188;2022-12-11T10:05:39;97728.00;;;-0.50
35582;BMP180;21687;48.900;9.188;2022-12-11T10:08:19;97720.00;;;-0.40
35582;BMP180;21687;48.900;9.188;2022-12-11T10:14:04;97732.00;;;-0.60
35582;BMP180;21687;48.900;9.188;2022-12-11T10:16:39;97727.00;;;-0.90
35582;BMP180;21687;48.900;9.188;2022-12-11T10:19:21;97725.00;;;-0.70
35582;BMP180;21687;48.900;9.188;2022-12-11T10:21:51;97721.00;;;-0.60
35582;BMP180;21687;48.900;9.188;2022-12-11T10:26:47;97715.00;;;-0.50
35582;BMP180;21687;48.900;9.188;2022-12-11T10:29:15;97712.00;;;-0.50
35582;BMP180;21687;48.900;9.188;2022-12-11T10:31:45;97699.00;;;-0.90
35582;BMP180;21687;48.900;9.188;2022-12-11T10:34:19;97698.00;;;-1.00
35582;BMP180;21687;48.900;9.188;2022-12-11T10:36:49;97699.00;;;-0.70
35582;BMP180;21687;48.900;9.188;2022-12-11T10:39:17;97694.00;;;-0.60
35582;BMP180;21687;48.900;9.188;2022-12-11T10:41:49;97699.00;;;-0.50
35582;BMP180;21687;48.900;9.188;2022-12-11T10:44:22;97693.00;;;-0.30
35582;BMP180;21687;48.900;9.188;2022-12-11T10:47:08;97708.00;;;-0.20
35582;BMP180;21687;48.900;9.188;2022-12-11T10:49:36;97684.00;;;-0.40
35582;BMP180;21687;48.900;9.188;2022-12-11T10:52:19;97691.00;;;-0.20
35582;BMP180;21687;48.900;9.188;2022-12-11T10:54:46;97689.00;;;-0.10
35582;BMP180;21687;48.900;9.188;2022-12-11T10:57:35;97683.00;;;0.00
35582;BMP180;21687;48.900;9.188;2022-12-11T11:00:04;97679.00;;;0.10
35582;BMP180;21687;48.900;9.188;2022-12-11T11:02:39;97673.00;;;0.10
35582;BMP180;21687;48.900;9.188;2022-12-11T11:05:16;97672.00;;;0.10
35582;BMP180;21687;48.900;9.188;2022-12-11T11:07:43;97675.00;;;0.10
35582;BMP180;21687;48.900;9.188;2022-12-11T11:15:13;97651.00;;;-0.20
35582;BMP180;21687;48.900;9.188;2022-12-11T11:18:00;97668.00;;;0.00
35582;BMP180;21687;48.900;9.188;2022-12-11T11:20:30;97667.00;;;0.00
35582;BMP180;21687;48.900;9.188;2022-12-11T11:23:11;97664.00;;;0.00
35582;BMP180;21687;48.900;9.188;2022-12-11T11:25:39;97651.00;;;0.00
35582;BMP180;21687;48.900;9.188;2022-12-11T11:28:26;97656.00;;;-0.10
35582;BMP180;21687;48.900;9.188;2022-12-11T11:31:05;97647.00;;;0.00
35582;BMP180;21687;48.900;9.188;2022-12-11T11:33:35;97643.00;;;0.00
35582;BMP180;21687;48.900;9.188;2022-12-11T11:36:05;97644.00;;;0.10
35582;BMP180;21687;48.900;9.188;2022-12-11T11:43:52;97649.00;;;0.10
35582;BMP180;21687;48.900;9.188;2022-12-11T11:51:51;97638.00;;;-0.10
35582;BMP180;21687;48.900;9.188;2022-12-11T11:54:23;97643.00;;;-0.20
35582;BMP180;21687;48.900;9.188;2022-12-11T11:56:56;97645.00;;;-0.30
35582;BMP180;21687;48.900;9.188;2022-12-11T11:59:28;97644.00;;;-0.40
35582;BMP180;21687;48.900;9.188;2022-12-11T12:01:57;97640.00;;;-0.40
35582;BMP180;21687;48.900;9.188;2022-12-11T12:04:30;97647.00;;;-0.60
35582;BMP180;21687;48.900;9.188;2022-12-11T12:18:26;97645.00;;;-0.40
35582;BMP180;21687;48.900;9.188;2022-12-11T12:35:01;97638.00;;;-0.50
35582;BMP180;21687;48.900;9.188;2022-12-11T12:46:37;97629.00;;;-0.50
35582;BMP180;21687;48.900;9.188;2022-12-11T12:48:52;97629.00;;;-0.70
35582;BMP180;21687;48.900;9.188;2022-12-11T12:51:21;97617.00;;;-0.60
35582;BMP180;21687;48.900;9.188;2022-12-11T12:53:55;97623.00;;;-0.80
35582;BMP180;21687;48.900;9.188;2022-12-11T12:56:23;97618.00;;;-0.60
35582;BMP180;21687;48.900;9.188;2022-12-11T12:58:51;97618.00;;;-0.50
35582;BMP180;21687;48.900;9.188;2022-12-11T13:01:23;97616.00;;;-0.50
35582;BMP180;21687;48.900;9.188;2022-12-11T13:03:55;97609.00;;;-0.90
35582;BMP180;21687;48.900;9.188;2022-12-11T13:06:38;97608.00;;;-1.10
35582;BMP180;21687;48.900;9.188;2022-12-11T13:09:16;97612.00;;;-1.00
35582;BMP180;21687;48.900;9.188;2022-12-11T13:11:45;97606.00;;;-0.80
35582;BMP180;21687;48.900;9.188;2022-12-11T13:16:43;97615.00;;;-0.70
35582;BMP180;21687;48.900;9.188;2022-12-11T13:19:26;97614.00;;;-0.60
35582;BMP180;21687;48.900;9.188;2022-12-11T13:24:31;97618.00;;;-0.30
35582;BMP180;21687;48.900;9.188;2022-12-11T13:27:43;97619.00;;;-0.30
35582;BMP180;21687;48.900;9.188;2022-12-11T13:30:21;97614.00;;;-0.30
35582;BMP180;21687;48.900;9.188;2022-12-11T13:33:13;97624.00;;;-0.30
35582;BMP180;21687;48.900;9.188;2022-12-11T13:35:40;97623.00;;;-0.30
35582;BMP180;21687;48.900;9.188;2022-12-11T13:38:19;97617.00;;;-0.30
35582;BMP180;21687;48.900;9.188;2022-12-11T13:40:52;97624.00;;;-0.40
35582;BMP180;21687;48.900;9.188;2022-12-11T13:43:22;97624.00;;;-0.60
35582;BMP180;21687;48.900;9.188;2022-12-11T13:45:55;97625.00;;;-1.00
35582;BMP180;21687;48.900;9.188;2022-12-11T13:48:35;97631.00;;;-1.00
35582;BMP180;21687;48.900;9.188;2022-12-11T13:51:04;97638.00;;;-1.00
35582;BMP180;21687;48.900;9.188;2022-12-11T13:53:31;97626.00;;;-0.90
35582;BMP180;21687;48.900;9.188;2022-12-11T13:55:58;97633.00;;;-0.80
35582;BMP180;21687;48.900;9.188;2022-12-11T13:58:26;97640.00;;;-1.00
35582;BMP180;21687;48.900;9.188;2022-12-11T14:01:29;97623.00;;;-1.10
35582;BMP180;21687;48.900;9.188;2022-12-11T14:04:02;97628.00;;;-0.90
35582;BMP180;21687;48.900;9.188;2022-12-11T14:06:31;97633.00;;;-0.90
35582;BMP180;21687;48.900;9.188;2022-12-11T14:08:59;97641.00;;;-0.70
35582;BMP180;21687;48.900;9.188;2022-12-11T14:11:29;97628.00;;;-0.70
35582;BMP180;21687;48.900;9.188;2022-12-11T14:13:58;97629.00;;;-0.70
35582;BMP180;21687;48.900;9.188;2022-12-11T14:16:26;97639.00;;;-0.80
35582;BMP180;21687;48.900;9.188;2022-12-11T14:18:54;97642.00;;;-1.00
35582;BMP180;21687;48.900;9.188;2022-12-11T14:21:24;97640.00;;;-0.90
35582;BMP180;21687;48.900;9.188;2022-12-11T14:24:01;97632.00;;;-0.80
35582;BMP180;21687;48.900;9.188;2022-12-11T14:26:33;97645.00;;;-0.70
35582;BMP180;21687;48.900;9.188;2022-12-11T14:29:00;97638.00;;;-0.60
35582;BMP180;21687;48.900;9.188;2022-12-11T14:31:31;97645.00;;;-0.80
35582;BMP180;21687;48.900;9.188;2022-12-11T14:34:13;97635.00;;;-0.80
35582;BMP180;21687;48.900;9.188;2022-12-11T14:36:41;97635.00;;;-0.70
35582;BMP180;21687;48.900;9.188;2022-12-11T14:39:14;97649.00;;;-0.70
35582;BMP180;21687;48.900;9.188;2022-12-11T14:44:34;97646.00;;;-1.00
35582;BMP180;21687;48.900;9.188;2022-12-11T14:47:24;97659.00;;;-1.10
35582;BMP180;21687;48.900;9.188;2022-12-11T14:50:10;97659.00;;;-1.10
35582;BMP180;21687;48.900;9.188;2022-12-11T14:52:45;97667.00;;;-1.20
35582;BMP180;21687;48.900;9.188;2022-12-11T14:55:28;97668.00;;;-1.30
35582;BMP180;21687;48.900;9.188;2022-12-11T14:58:01;97668.00;;;-1.30
35582;BMP180;21687;48.900;9.188;2022-12-11T15:00:30;97675.00;;;-1.30
35582;BMP180;21687;48.900;9.188;2022-12-11T15:03:17;97669.00;;;-1.30
35582;BMP180;21687;48.900;9.188;2022-12-11T15:05:53;97666.00;;;-1.40
35582;BMP180;21687;48.900;9.188;2022-12-11T15:08:29;97668.00;;;-1.30
35582;BMP180;21687;48.900;9.188;2022-12-11T15:11:12;97674.00;;;-1.50
35582;BMP180;21687;48.900;9.188;2022-12-11T15:13:56;97667.00;;;-1.60
35582;BMP180;21687;48.900;9.188;2022-12-11T15:16:30;97657.00;;;-1.60
35582;BMP180;21687;48.900;9.188;2022-12-11T15:18:57;97676.00;;;-1.70
35582;BMP180;21687;48.900;9.188;2022-12-11T15:21:32;97670.00;;;-1.70
35582;BMP180;21687;48.900;9.188;2022-12-11T15:24:04;97675.00;;;-1.70
35582;BMP180;21687;48.900;9.188;2022-12-11T15:26:37;97674.00;;;-1.60
35582;BMP180;21687;48.900;9.188;2022-12-11T15:29:40;97676.00;;;-1.70
35582;BMP180;21687;48.900;9.188;2022-12-11T15:34:56;97681.00;;;-1.80
35582;BMP180;21687;48.900;9.188;2022-12-11T15:39:49;97675.00;;;-1.70
35582;BMP180;21687;48.900;9.188;2022-12-11T15:42:23;97675.00;;;-1.70
35582;BMP180;21687;48.900;9.188;2022-12-11T15:44:50;97671.00;;;-1.90
35582;BMP180;21687;48.900;9.188;2022-12-11T15:47:25;97671.00;;;-1.90
35582;BMP180;21687;48.900;9.188;2022-12-11T15:49:57;97679.00;;;-2.10
35582;BMP180;21687;48.900;9.188;2022-12-11T15:52:24;97677.00;;;-2.00
35582;BMP180;21687;48.900;9.188;2022-12-11T15:54:50;97681.00;;;-2.10
35582;BMP180;21687;48.900;9.188;2022-12-11T15:57:20;97683.00;;;-2.10
35582;BMP180;21687;48.900;9.188;2022-12-11T15:59:49;97679.00;;;-2.00
35582;BMP180;21687;48.900;9.188;2022-12-11T16:02:16;97686.00;;;-2.10